sensor_id;sensor_type;location;lat;lon;timestamp;P1;durP1;ratioP1;P2;durP2;ratioP2
21681;SDS011;11002;48.256;10.084;2023-07-13T00:00:50;9.43;;;5.65;;
21681;SDS011;11002;48.256;10.084;2023-07-13T00:03:17;9.73;;;5.47;;
21681;SDS011;11002;48.256;10.084;2023-07-13T00:05:44;9.25;;;5.70;;
21681;SDS011;11002;48.256;10.084;2023-07-13T00:08:14;11.45;;;6.43;;
21681;SDS011;11002;48.256;10.084;2023-07-13T00:10:42;15.73;;;6.78;;
21681;SDS011;11002;48.256;10.084;2023-07-13T00:13:11;12.00;;;5.82;;
21681;SDS011;11002;48.256;10.084;2023-07-13T00:15:39;9.73;;;6.63;;
21681;SDS011;11002;48.256;10.084;2023-07-13T00:18:06;13.52;;;6.50;;
21681;SDS011;11002;48.256;10.084;2023-07-13T00:20:33;12.13;;;6.25;;
21681;SDS011;11002;48.256;10.084;2023-07-13T00:23:01;14.95;;;6.82;;
21681;SDS011;11002;48.256;10.084;2023-07-13T00:25:30;10.32;;;5.80;;
21681;SDS011;11002;48.256;10.084;2023-07-13T00:27:57;12.95;;;6.60;;
21681;SDS011;11002;48.256;10.084;2023-07-13T00:30:24;6.55;;;5.22;;
21681;SDS011;11002;48.256;10.084;2023-07-13T00:32:52;11.32;;;5.68;;
21681;SDS011;11002;48.256;10.084;2023-07-13T00:35:19;12.00;;;5.90;;
21681;SDS011;11002;48.256;10.084;2023-07-13T00:37:46;7.97;;;5.80;;
21681;SDS011;11002;48.256;10.084;2023-07-13T00:40:17;12.13;;;5.88;;
21681;SDS011;11002;48.256;10.084;2023-07-13T00:42:46;9.07;;;5.65;;
21681;SDS011;11002;48.256;10.084;2023-07-13T00:48:20;6.80;;;3.50;;
21681;SDS011;11002;48.256;10.084;2023-07-13T00:50:52;7.25;;;2.40;;
21681;SDS011;11002;48.256;10.084;2023-07-13T00:53:22;7.25;;;2.40;;
21681;SDS011;11002;48.256;10.084;2023-07-13T00:55:51;4.85;;;2.15;;
21681;SDS011;11002;48.256;10.084;2023-07-13T00:58:23;6.70;;;2.50;;
21681;SDS011;11002;48.256;10.084;2023-07-13T01:00:51;4.15;;;2.45;;
21681;SDS011;11002;48.256;10.084;2023-07-13T01:03:19;4.40;;;2.20;;
21681;SDS011;11002;48.256;10.084;2023-07-13T01:05:47;4.82;;;2.58;;
21681;SDS011;11002;48.256;10.084;2023-07-13T01:08:17;2.60;;;2.38;;
21681;SDS011;11002;48.256;10.084;2023-07-13T01:10:50;4.00;;;2.53;;
21681;SDS011;11002;48.256;10.084;2023-07-13T01:13:18;3.83;;;2.53;;
21681;SDS011;11002;48.256;10.084;2023-07-13T01:15:48;7.93;;;3.00;;
21681;SDS011;11002;48.256;10.084;2023-07-13T01:18:18;7.85;;;3.70;;
21681;SDS011;11002;48.256;10.084;2023-07-13T01:20:52;6.50;;;3.03;;
21681;SDS011;11002;48.256;10.084;2023-07-13T01:23:20;3.88;;;2.80;;
21681;SDS011;11002;48.256;10.084;2023-07-13T01:25:49;7.40;;;2.75;;
21681;SDS011;11002;48.256;10.084;2023-07-13T01:28:16;6.35;;;2.50;;
21681;SDS011;11002;48.256;10.084;2023-07-13T01:30:44;5.93;;;2.97;;
21681;SDS011;11002;48.256;10.084;2023-07-13T01:33:13;5.90;;;2.60;;
21681;SDS011;11002;48.256;10.084;2023-07-13T01:35:42;5.38;;;2.55;;
21681;SDS011;11002;48.256;10.084;2023-07-13T01:38:13;9.10;;;3.00;;
21681;SDS011;11002;48.256;10.084;2023-07-13T01:40:41;6.75;;;3.80;;
21681;SDS011;11002;48.256;10.084;2023-07-13T01:43:09;6.43;;;3.60;;
21681;SDS011;11002;48.256;10.084;2023-07-13T01:45:37;7.90;;;3.03;;
21681;SDS011;11002;48.256;10.084;2023-07-13T01:48:04;4.32;;;2.65;;
21681;SDS011;11002;48.256;10.084;2023-07-13T01:50:33;9.75;;;2.50;;
21681;SDS011;11002;48.256;10.084;2023-07-13T01:53:00;2.38;;;2.13;;
21681;SDS011;11002;48.256;10.084;2023-07-13T01:55:29;3.95;;;2.38;;
21681;SDS011;11002;48.256;10.084;2023-07-13T01:57:57;6.60;;;2.70;;
21681;SDS011;11002;48.256;10.084;2023-07-13T02:00:24;5.43;;;2.50;;
21681;SDS011;11002;48.256;10.084;2023-07-13T02:02:53;7.45;;;2.38;;
21681;SDS011;11002;48.256;10.084;2023-07-13T02:05:21;4.38;;;2.63;;
21681;SDS011;11002;48.256;10.084;2023-07-13T02:07:48;4.88;;;2.47;;
21681;SDS011;11002;48.256;10.084;2023-07-13T02:10:16;4.40;;;2.42;;
21681;SDS011;11002;48.256;10.084;2023-07-13T02:12:45;6.72;;;3.28;;
21681;SDS011;11002;48.256;10.084;2023-07-13T02:15:13;5.05;;;2.70;;
21681;SDS011;11002;48.256;10.084;2023-07-13T02:17:40;11.90;;;2.92;;
21681;SDS011;11002;48.256;10.084;2023-07-13T02:20:08;7.57;;;2.67;;
21681;SDS011;11002;48.256;10.084;2023-07-13T02:22:35;2.92;;;2.00;;
21681;SDS011;11002;48.256;10.084;2023-07-13T02:25:03;3.45;;;2.47;;
21681;SDS011;11002;48.256;10.084;2023-07-13T02:27:31;2.85;;;2.42;;
21681;SDS011;11002;48.256;10.084;2023-07-13T02:30:00;5.35;;;2.35;;
21681;SDS011;11002;48.256;10.084;2023-07-13T02:32:28;8.07;;;2.35;;
21681;SDS011;11002;48.256;10.084;2023-07-13T02:34:55;4.65;;;2.47;;
21681;SDS011;11002;48.256;10.084;2023-07-13T02:37:23;2.92;;;2.30;;
21681;SDS011;11002;48.256;10.084;2023-07-13T02:39:50;7.35;;;2.38;;
21681;SDS011;11002;48.256;10.084;2023-07-13T02:42:17;3.17;;;1.90;;
21681;SDS011;11002;48.256;10.084;2023-07-13T02:44:45;2.75;;;2.17;;
21681;SDS011;11002;48.256;10.084;2023-07-13T02:47:14;3.05;;;1.92;;
21681;SDS011;11002;48.256;10.084;2023-07-13T02:49:41;3.13;;;2.17;;
21681;SDS011;11002;48.256;10.084;2023-07-13T02:52:09;3.10;;;2.35;;
21681;SDS011;11002;48.256;10.084;2023-07-13T02:54:36;7.10;;;2.85;;
21681;SDS011;11002;48.256;10.084;2023-07-13T02:57:04;3.95;;;2.72;;
21681;SDS011;11002;48.256;10.084;2023-07-13T02:59:32;5.43;;;2.20;;
21681;SDS011;11002;48.256;10.084;2023-07-13T03:02:00;4.03;;;2.38;;
21681;SDS011;11002;48.256;10.084;2023-07-13T03:04:29;4.03;;;2.60;;
21681;SDS011;11002;48.256;10.084;2023-07-13T03:06:57;4.20;;;2.15;;
21681;SDS011;11002;48.256;10.084;2023-07-13T03:09:31;4.47;;;2.83;;
21681;SDS011;11002;48.256;10.084;2023-07-13T03:12:00;7.20;;;2.67;;
21681;SDS011;11002;48.256;10.084;2023-07-13T03:14:30;8.40;;;2.70;;
21681;SDS011;11002;48.256;10.084;2023-07-13T03:16:59;6.15;;;2.42;;
21681;SDS011;11002;48.256;10.084;2023-07-13T03:19:32;8.55;;;3.00;;
21681;SDS011;11002;48.256;10.084;2023-07-13T03:22:01;7.57;;;2.80;;
21681;SDS011;11002;48.256;10.084;2023-07-13T03:24:29;6.35;;;2.55;;
21681;SDS011;11002;48.256;10.084;2023-07-13T03:26:57;10.25;;;2.85;;
21681;SDS011;11002;48.256;10.084;2023-07-13T03:29:24;8.57;;;2.47;;
21681;SDS011;11002;48.256;10.084;2023-07-13T03:31:52;5.38;;;2.50;;
21681;SDS011;11002;48.256;10.084;2023-07-13T03:34:22;6.78;;;2.40;;
21681;SDS011;11002;48.256;10.084;2023-07-13T03:36:53;4.38;;;2.55;;
21681;SDS011;11002;48.256;10.084;2023-07-13T03:39:21;6.38;;;2.97;;
21681;SDS011;11002;48.256;10.084;2023-07-13T03:41:52;6.25;;;2.33;;
21681;SDS011;11002;48.256;10.084;2023-07-13T03:44:21;6.53;;;2.38;;
21681;SDS011;11002;48.256;10.084;2023-07-13T03:46:52;3.85;;;2.13;;
21681;SDS011;11002;48.256;10.084;2023-07-13T03:49:20;3.67;;;2.58;;
21681;SDS011;11002;48.256;10.084;2023-07-13T03:51:47;3.38;;;2.40;;
21681;SDS011;11002;48.256;10.084;2023-07-13T03:54:16;2.80;;;1.73;;
21681;SDS011;11002;48.256;10.084;2023-07-13T03:56:44;4.65;;;2.00;;
21681;SDS011;11002;48.256;10.084;2023-07-13T03:59:12;5.15;;;2.40;;
21681;SDS011;11002;48.256;10.084;2023-07-13T04:01:39;2.25;;;1.70;;
21681;SDS011;11002;48.256;10.084;2023-07-13T04:04:06;3.50;;;2.00;;
21681;SDS011;11002;48.256;10.084;2023-07-13T04:06:34;5.40;;;2.13;;
21681;SDS011;11002;48.256;10.084;2023-07-13T04:09:02;6.40;;;1.83;;
21681;SDS011;11002;48.256;10.084;2023-07-13T04:11:32;3.78;;;1.80;;
21681;SDS011;11002;48.256;10.084;2023-07-13T04:14:01;6.43;;;1.90;;
21681;SDS011;11002;48.256;10.084;2023-07-13T04:16:29;8.45;;;2.22;;
21681;SDS011;11002;48.256;10.084;2023-07-13T04:18:56;3.88;;;1.80;;
21681;SDS011;11002;48.256;10.084;2023-07-13T04:21:25;3.22;;;2.20;;
21681;SDS011;11002;48.256;10.084;2023-07-13T04:23:54;2.35;;;2.13;;
21681;SDS011;11002;48.256;10.084;2023-07-13T04:26:21;3.70;;;1.80;;
21681;SDS011;11002;48.256;10.084;2023-07-13T04:28:51;2.33;;;1.80;;
21681;SDS011;11002;48.256;10.084;2023-07-13T04:31:18;3.55;;;1.80;;
21681;SDS011;11002;48.256;10.084;2023-07-13T04:33:46;5.25;;;2.25;;
21681;SDS011;11002;48.256;10.084;2023-07-13T04:36:14;5.75;;;2.05;;
21681;SDS011;11002;48.256;10.084;2023-07-13T04:38:42;6.45;;;2.30;;
21681;SDS011;11002;48.256;10.084;2023-07-13T04:41:09;7.00;;;2.22;;
21681;SDS011;11002;48.256;10.084;2023-07-13T04:43:37;6.53;;;2.40;;
21681;SDS011;11002;48.256;10.084;2023-07-13T04:46:06;3.50;;;1.70;;
21681;SDS011;11002;48.256;10.084;2023-07-13T04:48:34;3.58;;;1.77;;
21681;SDS011;11002;48.256;10.084;2023-07-13T04:51:02;2.92;;;1.92;;
21681;SDS011;11002;48.256;10.084;2023-07-13T04:53:30;4.88;;;2.80;;
21681;SDS011;11002;48.256;10.084;2023-07-13T04:55:58;4.57;;;2.58;;
21681;SDS011;11002;48.256;10.084;2023-07-13T04:58:25;3.05;;;2.30;;
21681;SDS011;11002;48.256;10.084;2023-07-13T05:00:53;5.28;;;2.13;;
21681;SDS011;11002;48.256;10.084;2023-07-13T05:03:27;3.92;;;2.28;;
21681;SDS011;11002;48.256;10.084;2023-07-13T05:05:55;8.15;;;2.10;;
21681;SDS011;11002;48.256;10.084;2023-07-13T05:08:23;3.45;;;1.80;;
21681;SDS011;11002;48.256;10.084;2023-07-13T05:10:51;8.45;;;2.30;;
21681;SDS011;11002;48.256;10.084;2023-07-13T05:13:19;6.38;;;2.33;;
21681;SDS011;11002;48.256;10.084;2023-07-13T05:15:47;5.28;;;2.40;;
21681;SDS011;11002;48.256;10.084;2023-07-13T05:18:22;1.90;;;1.80;;
21681;SDS011;11002;48.256;10.084;2023-07-13T05:20:56;7.82;;;2.50;;
21681;SDS011;11002;48.256;10.084;2023-07-13T05:23:24;3.75;;;2.30;;
21681;SDS011;11002;48.256;10.084;2023-07-13T05:25:52;2.88;;;2.00;;
21681;SDS011;11002;48.256;10.084;2023-07-13T05:28:20;3.95;;;1.95;;
21681;SDS011;11002;48.256;10.084;2023-07-13T05:30:48;4.03;;;2.03;;
21681;SDS011;11002;48.256;10.084;2023-07-13T05:33:16;6.20;;;2.22;;
21681;SDS011;11002;48.256;10.084;2023-07-13T05:35:43;8.07;;;1.98;;
21681;SDS011;11002;48.256;10.084;2023-07-13T05:38:12;3.50;;;2.45;;
21681;SDS011;11002;48.256;10.084;2023-07-13T05:40:39;3.97;;;2.22;;
21681;SDS011;11002;48.256;10.084;2023-07-13T05:43:09;5.22;;;2.28;;
21681;SDS011;11002;48.256;10.084;2023-07-13T05:45:36;7.70;;;2.17;;
21681;SDS011;11002;48.256;10.084;2023-07-13T05:48:04;3.20;;;2.13;;
21681;SDS011;11002;48.256;10.084;2023-07-13T05:50:31;3.60;;;1.90;;
21681;SDS011;11002;48.256;10.084;2023-07-13T05:52:59;6.13;;;2.13;;
21681;SDS011;11002;48.256;10.084;2023-07-13T05:55:27;3.13;;;1.92;;
21681;SDS011;11002;48.256;10.084;2023-07-13T05:57:55;3.35;;;2.00;;
21681;SDS011;11002;48.256;10.084;2023-07-13T06:00:23;7.18;;;2.20;;
21681;SDS011;11002;48.256;10.084;2023-07-13T06:02:51;2.78;;;1.95;;
21681;SDS011;11002;48.256;10.084;2023-07-13T06:05:19;4.30;;;2.03;;
21681;SDS011;11002;48.256;10.084;2023-07-13T06:07:46;2.78;;;1.90;;
21681;SDS011;11002;48.256;10.084;2023-07-13T06:10:13;5.95;;;1.85;;
21681;SDS011;11002;48.256;10.084;2023-07-13T06:12:42;3.55;;;2.10;;
21681;SDS011;11002;48.256;10.084;2023-07-13T06:15:10;3.33;;;1.90;;
21681;SDS011;11002;48.256;10.084;2023-07-13T06:17:37;5.32;;;1.70;;
21681;SDS011;11002;48.256;10.084;2023-07-13T06:20:05;8.00;;;1.80;;
21681;SDS011;11002;48.256;10.084;2023-07-13T06:22:36;4.85;;;2.00;;
21681;SDS011;11002;48.256;10.084;2023-07-13T06:25:03;9.38;;;2.22;;
21681;SDS011;11002;48.256;10.084;2023-07-13T06:27:31;1.42;;;1.10;;
21681;SDS011;11002;48.256;10.084;2023-07-13T06:30:00;7.53;;;1.42;;
21681;SDS011;11002;48.256;10.084;2023-07-13T06:32:28;4.60;;;1.83;;
21681;SDS011;11002;48.256;10.084;2023-07-13T06:34:55;5.28;;;1.50;;
21681;SDS011;11002;48.256;10.084;2023-07-13T06:37:23;2.10;;;1.30;;
21681;SDS011;11002;48.256;10.084;2023-07-13T06:39:50;1.30;;;1.20;;
21681;SDS011;11002;48.256;10.084;2023-07-13T06:42:17;2.20;;;1.10;;
21681;SDS011;11002;48.256;10.084;2023-07-13T06:44:45;4.07;;;1.20;;
21681;SDS011;11002;48.256;10.084;2023-07-13T06:47:13;3.13;;;1.40;;
21681;SDS011;11002;48.256;10.084;2023-07-13T06:49:41;3.05;;;1.45;;
21681;SDS011;11002;48.256;10.084;2023-07-13T06:52:08;4.45;;;1.40;;
21681;SDS011;11002;48.256;10.084;2023-07-13T06:54:35;2.72;;;1.25;;
21681;SDS011;11002;48.256;10.084;2023-07-13T06:57:03;2.45;;;1.20;;
21681;SDS011;11002;48.256;10.084;2023-07-13T06:59:30;4.47;;;1.08;;
21681;SDS011;11002;48.256;10.084;2023-07-13T07:01:58;3.10;;;1.40;;
21681;SDS011;11002;48.256;10.084;2023-07-13T07:04:26;6.03;;;1.23;;
21681;SDS011;11002;48.256;10.084;2023-07-13T07:06:54;5.18;;;1.13;;
21681;SDS011;11002;48.256;10.084;2023-07-13T07:09:21;2.45;;;1.58;;
21681;SDS011;11002;48.256;10.084;2023-07-13T07:11:48;6.07;;;1.77;;
21681;SDS011;11002;48.256;10.084;2023-07-13T07:14:16;6.53;;;1.42;;
21681;SDS011;11002;48.256;10.084;2023-07-13T07:16:43;3.10;;;1.40;;
21681;SDS011;11002;48.256;10.084;2023-07-13T07:19:10;3.75;;;1.38;;
21681;SDS011;11002;48.256;10.084;2023-07-13T07:21:39;1.88;;;1.15;;
21681;SDS011;11002;48.256;10.084;2023-07-13T07:24:06;1.13;;;1.02;;
21681;SDS011;11002;48.256;10.084;2023-07-13T07:26:34;4.20;;;1.48;;
21681;SDS011;11002;48.256;10.084;2023-07-13T07:29:01;2.05;;;1.35;;
21681;SDS011;11002;48.256;10.084;2023-07-13T07:31:28;2.90;;;1.20;;
21681;SDS011;11002;48.256;10.084;2023-07-13T07:33:56;1.48;;;1.00;;
21681;SDS011;11002;48.256;10.084;2023-07-13T07:36:23;1.75;;;1.20;;
21681;SDS011;11002;48.256;10.084;2023-07-13T07:38:52;4.40;;;0.95;;
21681;SDS011;11002;48.256;10.084;2023-07-13T07:41:19;7.22;;;1.10;;
21681;SDS011;11002;48.256;10.084;2023-07-13T07:43:46;5.70;;;0.98;;
21681;SDS011;11002;48.256;10.084;2023-07-13T07:46:14;2.55;;;1.38;;
21681;SDS011;11002;48.256;10.084;2023-07-13T07:48:41;3.17;;;1.02;;
21681;SDS011;11002;48.256;10.084;2023-07-13T07:51:09;3.60;;;1.88;;
21681;SDS011;11002;48.256;10.084;2023-07-13T07:53:36;2.85;;;1.15;;
21681;SDS011;11002;48.256;10.084;2023-07-13T07:56:05;3.42;;;1.17;;
21681;SDS011;11002;48.256;10.084;2023-07-13T07:58:32;0.95;;;0.85;;
21681;SDS011;11002;48.256;10.084;2023-07-13T08:01:03;1.65;;;1.20;;
21681;SDS011;11002;48.256;10.084;2023-07-13T08:03:31;2.72;;;1.00;;
21681;SDS011;11002;48.256;10.084;2023-07-13T08:05:58;2.30;;;1.02;;
21681;SDS011;11002;48.256;10.084;2023-07-13T08:08:26;1.92;;;1.20;;
21681;SDS011;11002;48.256;10.084;2023-07-13T08:10:53;5.97;;;1.33;;
21681;SDS011;11002;48.256;10.084;2023-07-13T08:13:22;2.47;;;1.00;;
21681;SDS011;11002;48.256;10.084;2023-07-13T08:15:49;2.15;;;1.30;;
21681;SDS011;11002;48.256;10.084;2023-07-13T08:18:16;6.88;;;1.42;;
21681;SDS011;11002;48.256;10.084;2023-07-13T08:20:44;1.05;;;0.73;;
21681;SDS011;11002;48.256;10.084;2023-07-13T08:23:11;1.58;;;1.20;;
21681;SDS011;11002;48.256;10.084;2023-07-13T08:25:39;3.28;;;1.13;;
21681;SDS011;11002;48.256;10.084;2023-07-13T08:28:06;4.90;;;1.05;;
21681;SDS011;11002;48.256;10.084;2023-07-13T08:30:35;1.80;;;1.02;;
21681;SDS011;11002;48.256;10.084;2023-07-13T08:33:03;5.47;;;1.20;;
21681;SDS011;11002;48.256;10.084;2023-07-13T08:35:30;2.00;;;0.90;;
21681;SDS011;11002;48.256;10.084;2023-07-13T08:37:57;1.00;;;0.88;;
21681;SDS011;11002;48.256;10.084;2023-07-13T08:40:26;2.17;;;1.25;;
21681;SDS011;11002;48.256;10.084;2023-07-13T08:42:54;4.03;;;1.10;;
21681;SDS011;11002;48.256;10.084;2023-07-13T08:45:27;5.65;;;1.20;;
21681;SDS011;11002;48.256;10.084;2023-07-13T08:48:03;1.55;;;0.85;;
21681;SDS011;11002;48.256;10.084;2023-07-13T08:50:35;0.85;;;0.85;;
21681;SDS011;11002;48.256;10.084;2023-07-13T08:53:08;2.00;;;0.90;;
21681;SDS011;11002;48.256;10.084;2023-07-13T08:55:39;3.28;;;1.00;;
21681;SDS011;11002;48.256;10.084;2023-07-13T08:58:09;2.90;;;1.00;;
21681;SDS011;11002;48.256;10.084;2023-07-13T09:00:41;0.98;;;0.88;;
21681;SDS011;11002;48.256;10.084;2023-07-13T09:03:18;1.10;;;0.85;;
21681;SDS011;11002;48.256;10.084;2023-07-13T09:08:23;2.55;;;0.90;;
21681;SDS011;11002;48.256;10.084;2023-07-13T09:10:59;1.48;;;1.10;;
21681;SDS011;11002;48.256;10.084;2023-07-13T09:13:40;3.45;;;1.10;;
21681;SDS011;11002;48.256;10.084;2023-07-13T09:16:14;4.88;;;1.40;;
21681;SDS011;11002;48.256;10.084;2023-07-13T09:18:43;3.33;;;1.00;;
21681;SDS011;11002;48.256;10.084;2023-07-13T09:21:15;2.83;;;1.25;;
21681;SDS011;11002;48.256;10.084;2023-07-13T09:23:47;2.72;;;0.80;;
21681;SDS011;11002;48.256;10.084;2023-07-13T09:26:20;2.15;;;0.80;;
21681;SDS011;11002;48.256;10.084;2023-07-13T09:28:49;1.05;;;0.95;;
21681;SDS011;11002;48.256;10.084;2023-07-13T09:31:20;3.65;;;1.02;;
21681;SDS011;11002;48.256;10.084;2023-07-13T09:33:54;1.92;;;1.00;;
21681;SDS011;11002;48.256;10.084;2023-07-13T09:36:22;4.18;;;1.20;;
21681;SDS011;11002;48.256;10.084;2023-07-13T09:38:53;3.25;;;0.93;;
21681;SDS011;11002;48.256;10.084;2023-07-13T09:41:27;2.90;;;0.88;;
21681;SDS011;11002;48.256;10.084;2023-07-13T09:44:06;6.68;;;0.95;;
21681;SDS011;11002;48.256;10.084;2023-07-13T09:46:36;1.63;;;1.10;;
21681;SDS011;11002;48.256;10.084;2023-07-13T09:49:07;3.33;;;1.10;;
21681;SDS011;11002;48.256;10.084;2023-07-13T09:51:36;5.55;;;1.30;;
21681;SDS011;11002;48.256;10.084;2023-07-13T09:54:03;2.60;;;0.85;;
21681;SDS011;11002;48.256;10.084;2023-07-13T09:56:31;4.28;;;1.10;;
21681;SDS011;11002;48.256;10.084;2023-07-13T09:58:58;1.38;;;1.10;;
21681;SDS011;11002;48.256;10.084;2023-07-13T10:01:33;2.22;;;0.80;;
21681;SDS011;11002;48.256;10.084;2023-07-13T10:04:02;2.13;;;0.95;;
21681;SDS011;11002;48.256;10.084;2023-07-13T10:06:39;3.58;;;1.10;;
21681;SDS011;11002;48.256;10.084;2023-07-13T10:09:08;3.13;;;0.93;;
21681;SDS011;11002;48.256;10.084;2023-07-13T10:11:36;2.72;;;1.15;;
21681;SDS011;11002;48.256;10.084;2023-07-13T10:14:10;4.25;;;1.08;;
21681;SDS011;11002;48.256;10.084;2023-07-13T10:16:41;3.30;;;1.08;;
21681;SDS011;11002;48.256;10.084;2023-07-13T10:19:13;2.17;;;1.10;;
21681;SDS011;11002;48.256;10.084;2023-07-13T10:21:49;3.55;;;0.98;;
21681;SDS011;11002;48.256;10.084;2023-07-13T10:24:21;1.45;;;0.80;;
21681;SDS011;11002;48.256;10.084;2023-07-13T10:26:52;4.32;;;1.02;;
21681;SDS011;11002;48.256;10.084;2023-07-13T10:29:25;1.73;;;0.88;;
21681;SDS011;11002;48.256;10.084;2023-07-13T10:31:54;1.00;;;0.70;;
21681;SDS011;11002;48.256;10.084;2023-07-13T10:34:23;4.55;;;1.10;;
21681;SDS011;11002;48.256;10.084;2023-07-13T10:36:51;1.05;;;0.63;;
21681;SDS011;11002;48.256;10.084;2023-07-13T10:39:20;3.17;;;1.20;;
21681;SDS011;11002;48.256;10.084;2023-07-13T10:41:52;1.70;;;0.70;;
21681;SDS011;11002;48.256;10.084;2023-07-13T10:44:22;5.25;;;0.90;;
21681;SDS011;11002;48.256;10.084;2023-07-13T10:46:55;3.03;;;1.02;;
21681;SDS011;11002;48.256;10.084;2023-07-13T10:49:27;3.78;;;0.95;;
21681;SDS011;11002;48.256;10.084;2023-07-13T10:51:57;4.68;;;0.77;;
21681;SDS011;11002;48.256;10.084;2023-07-13T10:54:26;1.35;;;0.65;;
21681;SDS011;11002;48.256;10.084;2023-07-13T10:57:07;1.83;;;0.82;;
21681;SDS011;11002;48.256;10.084;2023-07-13T10:59:48;1.40;;;0.70;;
21681;SDS011;11002;48.256;10.084;2023-07-13T11:02:36;3.80;;;0.90;;
21681;SDS011;11002;48.256;10.084;2023-07-13T11:05:17;1.27;;;0.80;;
21681;SDS011;11002;48.256;10.084;2023-07-13T11:07:55;0.65;;;0.50;;
21681;SDS011;11002;48.256;10.084;2023-07-13T11:13:36;1.42;;;0.70;;
21681;SDS011;11002;48.256;10.084;2023-07-13T11:16:36;1.73;;;0.70;;
21681;SDS011;11002;48.256;10.084;2023-07-13T11:19:27;1.67;;;0.60;;
21681;SDS011;11002;48.256;10.084;2023-07-13T11:22:19;1.20;;;0.60;;
21681;SDS011;11002;48.256;10.084;2023-07-13T11:28:06;4.22;;;0.82;;
21681;SDS011;11002;48.256;10.084;2023-07-13T11:30:43;2.60;;;0.80;;
21681;SDS011;11002;48.256;10.084;2023-07-13T11:33:16;5.03;;;0.80;;
21681;SDS011;11002;48.256;10.084;2023-07-13T11:35:48;2.47;;;0.70;;
21681;SDS011;11002;48.256;10.084;2023-07-13T11:38:22;1.98;;;0.80;;
21681;SDS011;11002;48.256;10.084;2023-07-13T11:43:22;1.73;;;0.65;;
21681;SDS011;11002;48.256;10.084;2023-07-13T11:45:51;2.15;;;0.70;;
21681;SDS011;11002;48.256;10.084;2023-07-13T11:48:19;3.63;;;0.80;;
21681;SDS011;11002;48.256;10.084;2023-07-13T11:50:53;2.70;;;0.80;;
21681;SDS011;11002;48.256;10.084;2023-07-13T11:53:25;1.48;;;0.63;;
21681;SDS011;11002;48.256;10.084;2023-07-13T11:55:55;2.38;;;0.63;;
21681;SDS011;11002;48.256;10.084;2023-07-13T11:58:24;2.25;;;0.70;;
21681;SDS011;11002;48.256;10.084;2023-07-13T12:00:55;3.15;;;0.93;;
21681;SDS011;11002;48.256;10.084;2023-07-13T12:03:26;2.85;;;0.80;;
21681;SDS011;11002;48.256;10.084;2023-07-13T12:05:54;0.65;;;0.60;;
21681;SDS011;11002;48.256;10.084;2023-07-13T12:08:25;2.85;;;0.80;;
21681;SDS011;11002;48.256;10.084;2023-07-13T12:11:04;3.30;;;1.33;;
21681;SDS011;11002;48.256;10.084;2023-07-13T12:13:36;9.02;;;0.82;;
21681;SDS011;11002;48.256;10.084;2023-07-13T12:16:14;2.13;;;0.90;;
21681;SDS011;11002;48.256;10.084;2023-07-13T12:18:47;3.72;;;0.70;;
21681;SDS011;11002;48.256;10.084;2023-07-13T12:21:16;4.45;;;1.15;;
21681;SDS011;11002;48.256;10.084;2023-07-13T12:23:46;2.42;;;0.80;;
21681;SDS011;11002;48.256;10.084;2023-07-13T12:26:15;1.52;;;0.70;;
21681;SDS011;11002;48.256;10.084;2023-07-13T12:28:45;2.85;;;1.20;;
21681;SDS011;11002;48.256;10.084;2023-07-13T12:31:26;2.90;;;0.80;;
21681;SDS011;11002;48.256;10.084;2023-07-13T12:33:58;2.95;;;0.70;;
21681;SDS011;11002;48.256;10.084;2023-07-13T12:36:29;2.22;;;0.90;;
21681;SDS011;11002;48.256;10.084;2023-07-13T12:39:03;4.20;;;0.80;;
21681;SDS011;11002;48.256;10.084;2023-07-13T12:41:38;2.75;;;1.00;;
21681;SDS011;11002;48.256;10.084;2023-07-13T12:44:09;3.17;;;0.90;;
21681;SDS011;11002;48.256;10.084;2023-07-13T12:46:38;1.45;;;1.10;;
21681;SDS011;11002;48.256;10.084;2023-07-13T12:49:07;1.52;;;0.85;;
21681;SDS011;11002;48.256;10.084;2023-07-13T12:51:35;6.00;;;0.88;;
21681;SDS011;11002;48.256;10.084;2023-07-13T12:54:15;2.28;;;0.85;;
21681;SDS011;11002;48.256;10.084;2023-07-13T12:56:44;2.47;;;0.70;;
21681;SDS011;11002;48.256;10.084;2023-07-13T12:59:18;2.85;;;1.00;;
21681;SDS011;11002;48.256;10.084;2023-07-13T13:01:46;1.92;;;0.80;;
21681;SDS011;11002;48.256;10.084;2023-07-13T13:04:15;2.45;;;0.80;;
21681;SDS011;11002;48.256;10.084;2023-07-13T13:06:46;1.67;;;0.90;;
21681;SDS011;11002;48.256;10.084;2023-07-13T13:09:16;3.72;;;1.00;;
21681;SDS011;11002;48.256;10.084;2023-07-13T13:11:45;1.27;;;0.98;;
21681;SDS011;11002;48.256;10.084;2023-07-13T13:14:13;0.95;;;0.60;;
21681;SDS011;11002;48.256;10.084;2023-07-13T13:16:44;3.45;;;0.90;;
21681;SDS011;11002;48.256;10.084;2023-07-13T13:19:16;1.13;;;0.80;;
21681;SDS011;11002;48.256;10.084;2023-07-13T13:21:47;3.05;;;0.75;;
21681;SDS011;11002;48.256;10.084;2023-07-13T13:24:18;2.25;;;0.80;;
21681;SDS011;11002;48.256;10.084;2023-07-13T13:26:47;1.80;;;0.90;;
21681;SDS011;11002;48.256;10.084;2023-07-13T13:29:17;5.03;;;0.80;;
21681;SDS011;11002;48.256;10.084;2023-07-13T13:31:46;1.80;;;0.60;;
21681;SDS011;11002;48.256;10.084;2023-07-13T13:34:15;2.08;;;0.88;;
21681;SDS011;11002;48.256;10.084;2023-07-13T13:36:44;3.33;;;1.15;;
21681;SDS011;11002;48.256;10.084;2023-07-13T13:39:19;1.30;;;0.90;;
21681;SDS011;11002;48.256;10.084;2023-07-13T13:41:48;2.58;;;0.85;;
21681;SDS011;11002;48.256;10.084;2023-07-13T13:44:17;1.05;;;0.70;;
21681;SDS011;11002;48.256;10.084;2023-07-13T13:46:45;2.20;;;0.95;;
21681;SDS011;11002;48.256;10.084;2023-07-13T13:49:15;5.40;;;0.82;;
21681;SDS011;11002;48.256;10.084;2023-07-13T13:51:44;1.38;;;0.93;;
21681;SDS011;11002;48.256;10.084;2023-07-13T13:54:12;2.50;;;0.90;;
21681;SDS011;11002;48.256;10.084;2023-07-13T13:56:43;3.33;;;0.95;;
21681;SDS011;11002;48.256;10.084;2023-07-13T13:59:11;1.05;;;0.90;;
21681;SDS011;11002;48.256;10.084;2023-07-13T14:01:40;1.85;;;0.80;;
21681;SDS011;11002;48.256;10.084;2023-07-13T14:04:08;8.25;;;1.00;;
21681;SDS011;11002;48.256;10.084;2023-07-13T14:06:41;0.70;;;0.70;;
21681;SDS011;11002;48.256;10.084;2023-07-13T14:09:08;2.83;;;1.00;;
21681;SDS011;11002;48.256;10.084;2023-07-13T14:11:38;1.73;;;1.00;;
21681;SDS011;11002;48.256;10.084;2023-07-13T14:14:09;2.28;;;0.95;;
21681;SDS011;11002;48.256;10.084;2023-07-13T14:16:41;3.10;;;0.98;;
21681;SDS011;11002;48.256;10.084;2023-07-13T14:19:10;3.42;;;1.20;;
21681;SDS011;11002;48.256;10.084;2023-07-13T14:21:39;2.05;;;0.93;;
21681;SDS011;11002;48.256;10.084;2023-07-13T14:24:07;2.08;;;1.05;;
21681;SDS011;11002;48.256;10.084;2023-07-13T14:26:36;2.17;;;0.70;;
21681;SDS011;11002;48.256;10.084;2023-07-13T14:29:10;1.95;;;0.80;;
21681;SDS011;11002;48.256;10.084;2023-07-13T14:31:40;5.95;;;1.33;;
21681;SDS011;11002;48.256;10.084;2023-07-13T14:34:07;3.42;;;1.10;;
21681;SDS011;11002;48.256;10.084;2023-07-13T14:36:37;3.95;;;1.00;;
21681;SDS011;11002;48.256;10.084;2023-07-13T14:39:10;3.20;;;0.90;;
21681;SDS011;11002;48.256;10.084;2023-07-13T14:41:39;5.78;;;1.13;;
21681;SDS011;11002;48.256;10.084;2023-07-13T14:44:14;2.47;;;0.90;;
21681;SDS011;11002;48.256;10.084;2023-07-13T14:46:43;1.90;;;0.60;;
21681;SDS011;11002;48.256;10.084;2023-07-13T14:49:13;2.80;;;1.08;;
21681;SDS011;11002;48.256;10.084;2023-07-13T14:51:46;2.40;;;0.65;;
21681;SDS011;11002;48.256;10.084;2023-07-13T14:54:13;1.77;;;0.90;;
21681;SDS011;11002;48.256;10.084;2023-07-13T14:56:40;4.10;;;0.90;;
21681;SDS011;11002;48.256;10.084;2023-07-13T14:59:08;1.50;;;1.00;;
21681;SDS011;11002;48.256;10.084;2023-07-13T15:01:36;1.98;;;1.35;;